Home PIREPS Pireps

Flight BEL2623

  • Submitted By: Vincent Fourni
  • Departure Airport: Bruxelles National (EBBR)
  • Arrival Airport: airport Hamburg-Fuhlsbuttel (EDDH)
  • Aircraft: BAE AVRO RJ1 (OO-DWB)
  • Flight Time: 01.06
  • Date Submitted: 23/03/2018
  • Status: Accepted
Flight Details
Gross Revenue:
(76 load / € 65.00 per unit
€ 4,940.00
Fuel Cost:
(3066 fuel used @ 5.1 / unit)
€ 15,636.60

Additional Log Information:

View Log

Aircraft Used in flight is Boeing 737-800 TUIFLY OO-TUV
21:01 Brakes are On
21:01 Brakes are Released
21:03 Brakes are On
21:05 Brakes are Released
21:10 You Took off @ 161 Knots and Flaps at Position 3
Departure Weather
EBBR 231950Z 18004KT 9999 BKN019 06/03 Q1002 NOSIGrn
21:10 Landing Gear Up @ 170 Knots and 360 Feet
21:52 Above FL100 you need to switch of the landing lights
21:52 Above FL100 you need to switch of the landing lights
22:02 Landing Gear Down @ 200 Knots and 1280 Feet
22:04 You Landed @ 140 Knots and with -150 Vertical Speed
Arrival Weather
EDDH 232050Z 14006KT 9999 -RA BKN015 BKN022 06/03 Q1004 BECMG BKN008rn
22:04 Paused
22:07 Unpaused
22:07 Paused
22:07 Unpaused
22:08 Paused
22:11 Unpaused
22:11 Paused
22:11 Unpaused
22:11 Brakes are On
22:13 Brussels Bel-Track1.0.1.2

Route Map

Corporate About Us Our Team Vacancies Information Fleet Route Network Rules and Regulations Operations Flight Schedules Event Center Tours Partners IVAO Vatsim Acars dev FSCB

fb Users Online South Africa Marc Toussaint,
1 Pilot(s) and 163 Guest(s) Online
CMS by phpVMS - Design by Crazycreatives.com - Copyright © 2020 - Brussels Airlines Virtual